WetterOnline ( https://www.wetteronline.de )

Wetter aktuell San Filippo Superiore

Aktuelles Wetter: Messina (51m)

6-stündlich | Neueste Meldungen
Ortszeit Temperatur Wetter
So, 07.03. 1:00 13.6° C leicht bewölkt
Sa, 06.03. 19:00 14.0° C wolkig
Sa, 06.03. 13:00 18.0° C wolkig
Sa, 06.03. 7:00 12.2° C wolkig
Sa, 06.03. 1:00 12.2° C wolkig
Fr, 05.03. 19:00 13.0° C wolkig
Fr, 05.03. 13:00 14.2° C wolkig
Fr, 05.03. 7:00 8.0° C leicht bewölkt
Ortszeit Temperatur Wetter
So, 07.03. 6:00 11.6° C leicht bewölkt
So, 07.03. 5:55 12° C leicht bewölkt
So, 07.03. 5:00 12.2° C leicht bewölkt
So, 07.03. 4:55 12° C leicht bewölkt
So, 07.03. 4:00 12.6° C leicht bewölkt
So, 07.03. 3:55 13° C leicht bewölkt
So, 07.03. 3:00 12.6° C leicht bewölkt
So, 07.03. 2:00 13.4° C leicht bewölkt
Ortszeit Relative Feuchte Sichtweite
So, 07.03. 1:00 62% 12 km
Sa, 06.03. 19:00 75% 16 km
Sa, 06.03. 13:00 23% 20 km
Sa, 06.03. 7:00 54% 20 km
Sa, 06.03. 1:00 67% 10 km
Fr, 05.03. 19:00 62% 16 km
Fr, 05.03. 13:00 53% 20 km
Fr, 05.03. 7:00 76% 20 km
Ortszeit Relative Feuchte Sichtweite
So, 07.03. 6:00 65% 10 km
So, 07.03. 5:55 62% >10 km
So, 07.03. 5:00 60% 10 km
So, 07.03. 4:55 62% >10 km
So, 07.03. 4:00 54% 10 km
So, 07.03. 3:55 54% >10 km
So, 07.03. 3:00 55% 10 km
So, 07.03. 2:00 59% 10 km
Ortszeit Niederschlagsmenge Niederschlagsart
So, 07.03. 1:00 0.0 l/m2 in 6 Std. -
Sa, 06.03. 19:00 0.0 l/m2 in 12 Std. -
Sa, 06.03. 13:00 0.0 l/m2 in 6 Std. -
Sa, 06.03. 7:00 0.0 l/m2 in 12 Std. -
Sa, 06.03. 1:00 0.0 l/m2 in 6 Std. -
Fr, 05.03. 19:00 0.0 l/m2 in 12 Std. -
Fr, 05.03. 13:00 0.0 l/m2 in 6 Std. -
Fr, 05.03. 7:00 0.0 l/m2 in 12 Std. -
Ortszeit Niederschlagsmenge Niederschlagsart
So, 07.03. 6:00 keine Meldung -
So, 07.03. 5:55 keine Meldung -
So, 07.03. 5:00 keine Meldung -
So, 07.03. 4:55 keine Meldung -
So, 07.03. 4:00 keine Meldung -
So, 07.03. 3:55 keine Meldung -
So, 07.03. 3:00 keine Meldung -
So, 07.03. 2:00 keine Meldung -
Ortszeit Stärke Spitze Richtung
km/h Bft. km/h Grad Sektor
So, 07.03. 1:00 9 2 - 210° SW
Sa, 06.03. 19:00 4 1 - 130° SO
Sa, 06.03. 13:00 11 2 - 360° N
Sa, 06.03. 7:00 9 2 - 300° NW
Sa, 06.03. 1:00 6 1 - 330° NW
Fr, 05.03. 19:00 4 1 - 230° SW
Fr, 05.03. 13:00 7 2 - 10° N
Fr, 05.03. 7:00 0 0 - - -
Ortszeit Stärke Spitze Richtung
km/h Bft. km/h Grad Sektor
So, 07.03. 6:00 4 1 - 220° SW
So, 07.03. 5:55 4 1 - 220° SW
So, 07.03. 5:00 4 1 - 220° SW
So, 07.03. 4:55 4 1 - 220° SW
So, 07.03. 4:00 6 1 - 210° SW
So, 07.03. 3:55 6 1 - 210° SW
So, 07.03. 3:00 7 2 - 220° SW
So, 07.03. 2:00 4 1 - 230° SW
Ortszeit Untergrenze Bedeckung Gattung
total tief tief mittel hoch
So, 07.03. 1:00 900 m 5/8 3/8 Sc As -
Sa, 06.03. 19:00 900 m 6/8 4/8 Sc As -
Sa, 06.03. 13:00 1200 m 6/8 1/8 Sc Ac -
Sa, 06.03. 7:00 900 m 5/8 1/8 Sc Ac -
Sa, 06.03. 1:00 900 m 5/8 2/8 Sc As -
Fr, 05.03. 19:00 1050 m 6/8 2/8 Sc As -
Fr, 05.03. 13:00 1050 m 7/8 1/8 Sc As Cs
Fr, 05.03. 7:00 2400 m 5/8 3/8 - Ac Ci
Ortszeit Bedeckungsgrad in Achtel und Wolkenuntergrenze
So, 07.03. 6:00 2(750m)
So, 07.03. 5:55 1-2(750m)
So, 07.03. 5:00 2(900m) 3(2400m)
So, 07.03. 4:55 1-2(900m)
So, 07.03. 4:00 3(900m) 3(2400m)
So, 07.03. 3:55 3-4(900m)
So, 07.03. 3:00 3(900m) 3(2400m)
So, 07.03. 2:00 3(900m) 3(2400m)
Ortszeit Luftdruck NN (hPa) Tendenz (hPa in 3 Std.)
So, 07.03. 1:00 1024 + 0,2
Sa, 06.03. 19:00 1023 + 1,0
Sa, 06.03. 13:00 1022 + 0,7
Sa, 06.03. 7:00 1020 + 0,8
Sa, 06.03. 1:00 1019 - 0,9
Fr, 05.03. 19:00 1018 + 0,5
Fr, 05.03. 13:00 1019 - 1,0
Fr, 05.03. 7:00 1020 - 0,7
Ortszeit Luftdruck NN (hPa) Tendenz (hPa in 3 Std.)
So, 07.03. 6:00 1023 - 0,4
So, 07.03. 5:55 1023 keine Meldung
So, 07.03. 5:00 1023 - 0,6
So, 07.03. 4:55 1023 keine Meldung
So, 07.03. 4:00 1024 - 0,4
So, 07.03. 3:55 1023 keine Meldung
So, 07.03. 3:00 1024 - 0,2
So, 07.03. 2:00 1024 + 0,1
Ortszeit Schneehöhe (cm)
So, 07.03. 1:00 -
Sa, 06.03. 19:00 -
Sa, 06.03. 13:00 -
Sa, 06.03. 7:00 0
Sa, 06.03. 1:00 -
Fr, 05.03. 19:00 -
Fr, 05.03. 13:00 -
Fr, 05.03. 7:00 0
Ortszeit Schneehöhe (cm)
So, 07.03. 6:00 -
So, 07.03. 5:55 -
So, 07.03. 5:00 -
So, 07.03. 4:55 -
So, 07.03. 4:00 -
So, 07.03. 3:55 -
So, 07.03. 3:00 -
So, 07.03. 2:00 -
Link zu dieser Seite / Seite empfehlen

Das Wetter in ...